Flight Track Log - Related Links

Times and Time Zones

All times are in EDT time to prevent confusion due to time zone crossing. See the AAY817 flight status page for this flight to view local times or setup timezone preferences in your user account.

Time Position Orientation Groundspeed Altitude Reporting Facility
EDT Latitude Longitude Course Direction KTS MPH feet Rate Location/Type
Wed 01:17:59 PM 38.3511 -82.5142 180° South 155 178 3,000  Level Indianapolis Center
Wed 01:19:00 PM 38.2958 -82.4925 163° South 205 236 5,200 2,293 Climbing Indianapolis Center
Wed 01:20:02 PM 38.2322 -82.4967 183° South 235 270 7,700 2,613 Climbing Indianapolis Center
Wed 01:21:04 PM 38.1603 -82.4958 179° South 252 290 10,600 2,293 Climbing Indianapolis Center
Wed 01:22:05 PM 38.0642 -82.4989 181° South 295 339 12,400 2,195 Climbing Indianapolis Center
Wed 01:23:00 PM 37.6913 -82.5500 180° South  Level FlightAware Approximate
Wed 01:23:07 PM 37.9742 -82.4978 179° South 318 366 15,100  Level Indianapolis Center
Wed 01:24:09 PM 37.8814 -82.4992 181° South 326 375 16,900 1,984 Climbing Indianapolis Center
Wed 01:25:11 PM 37.7853 -82.5006 181° South 340 391 19,200 2,129 Climbing Indianapolis Center
Wed 01:26:13 PM 37.6900 -82.4947 177° South 340 391 21,300 1,463 Climbing Indianapolis Center
Wed 01:27:14 PM 37.5903 -82.5036 184° South 352 405 22,200 1,122 Climbing Indianapolis Center
Wed 01:28:16 PM 37.4819 -82.5039 180° South 377 434 23,600 1,548 Climbing Indianapolis Center
Wed 01:29:18 PM 37.3519 -82.5042 180° South 392 451 25,400 1,561 Climbing Indianapolis Center
Wed 01:30:19 PM 37.2389 -82.5047 180° South 400 460 26,800 1,317 Climbing Indianapolis Center
Wed 01:31:21 PM 37.1236 -82.5050 180° South 406 467 28,100 1,065 Climbing Indianapolis Center
Wed 01:32:23 PM 37.0042 -82.5056 180° South 416 479 29,000 919 Climbing Indianapolis Center
Wed 01:33:25 PM 36.8811 -82.5072 181° South 430 495 30,000 927 Climbing Indianapolis Center
Wed 01:34:26 PM 36.7564 -82.5078 180° South 437 503 30,900 1,122 Climbing Indianapolis Center
Wed 01:35:28 PM 36.6311 -82.5092 181° South 441 507 32,300 1,527 Climbing Indianapolis Center
Wed 01:36:16 PM 36.5200 -82.5094 180° South 446 513 33,700 1,278 Climbing Atlanta Center
Wed 01:37:16 PM 36.3992 -82.5117 181° South 436 502 34,600 650 Climbing Atlanta Center
Wed 01:38:16 PM 36.2803 -82.5114 180° South 436 502 35,000 200 Climbing Atlanta Center
Wed 01:39:16 PM 36.1594 -82.5136 181° South 436 502 35,000 300 Level Atlanta Center
Wed 01:40:16 PM 36.0406 -82.5133 180° South 436 502 35,600 500 Climbing Atlanta Center
Wed 01:41:16 PM 35.9217 -82.5131 180° South 441 507 36,000 200 Climbing Atlanta Center
Wed 01:42:16 PM 35.8006 -82.5153 181° South 441 507 36,000  Level Atlanta Center
Wed 01:43:16 PM 35.6858 -82.5225 183° South 427 491 36,000  Level Atlanta Center
Wed 01:44:16 PM 35.5733 -82.5222 180° South 427 491 36,000  Level Atlanta Center
Wed 01:45:16 PM 35.4544 -82.5217 180° South 427 491 36,000  Level Atlanta Center
Wed 01:48:28 PM 34.6857 -82.5238 180° South 431 496 36,000  Level FlightAware ADS-B (KDZJ)
Wed 01:49:13 PM 34.5938 -82.5244 180° South 431 496 36,000  Level FlightAware ADS-B (KDZJ)
Wed 01:49:49 PM 34.5194 -82.5250 180° South 431 496 36,000  Level FlightAware ADS-B (KDZJ)
Wed 01:51:16 PM 34.7158 -82.5250 180° South 440 506 36,000  Level Atlanta Center
Wed 01:52:16 PM 34.5947 -82.5247 180° South 440 506 36,000  Level Atlanta Center
Wed 01:53:16 PM 34.4736 -82.5269 181° South 440 506 36,000  Level Atlanta Center
Wed 02:00:31 PM 33.5820 -82.5317 180° South 441 507 36,000  Level FlightAware ADS-B (EFHN)
Wed 02:01:09 PM 33.5041 -82.5321 180° South 440 506 36,000  Level FlightAware ADS-B (EFHN)
Wed 02:02:16 PM 33.3842 -82.5336 180° South 441 507 36,000  Level Atlanta Center
Wed 02:03:16 PM 33.2592 -82.5358 181° South 441 507 36,000  Level Atlanta Center
Wed 02:04:16 PM 33.1381 -82.5356 180° South 436 502 36,000  Level Atlanta Center
Wed 02:05:16 PM 33.0022 -82.5378 181° South 441 507 36,000  Level Atlanta Center
Wed 02:06:16 PM 32.8833 -82.5397 181° South 441 507 36,000 500 Level Atlanta Center
Wed 02:07:16 PM 32.7603 -82.5369 179° South 441 507 37,000 745 Climbing Atlanta Center
Wed 02:08:57 PM 32.5711 -82.5425 181° South 438 504 38,000 373 Climbing Jacksonville Center
Wed 02:09:57 PM 32.4519 -82.5431 180° South 433 498 38,000  Level Jacksonville Center
Wed 02:10:57 PM 32.3247 -82.5386 178° South 423 487 38,000  Level Jacksonville Center
Wed 02:11:57 PM 32.2058 -82.5414 181° South 423 487 38,000  Level Jacksonville Center
Wed 02:12:57 PM 32.0889 -82.5394 179° South 423 487 38,000  Level Jacksonville Center
Wed 02:13:57 PM 31.9636 -82.5425 181° South 423 487 38,000  Level Jacksonville Center
Wed 02:14:57 PM 31.8486 -82.5600 187° South 423 487 38,000  Level Jacksonville Center
Wed 02:15:57 PM 31.7717 -82.6361 220° Southwest 408 470 38,000  Level Jacksonville Center
Wed 02:16:57 PM 31.7008 -82.7436 232° Southwest 403 464 38,000  Level Jacksonville Center
Wed 02:17:57 PM 31.6236 -82.8511 230° Southwest 415 478 38,000 -250 Level Jacksonville Center
Wed 02:18:57 PM 31.5547 -82.9561 232° Southwest 420 483 37,500 -750 Descending Jacksonville Center
Wed 02:19:57 PM 31.4817 -83.0583 230° Southwest 420 483 36,500 -338 Descending Jacksonville Center
Wed 02:25:27 PM 31.0701 -83.6508 231° Southwest 414 476 35,300 -245 Descending FlightAware ADS-B (KONZ)
Wed 02:26:05 PM 31.0197 -83.7223 231° Southwest 421 484 35,000 -250 Descending FlightAware ADS-B (KONZ)
Wed 02:26:39 PM 30.9707 -83.7768 222° Southwest 429 494 35,000  Level FlightAware ADS-B (KONZ)
Wed 02:26:49 PM 30.9528 -83.7878 205° Southwest 432 497 35,000  Level FlightAware ADS-B (KONZ)
Wed 02:27:09 PM 30.9191 -83.8000 190° South 436 502 35,000  Level FlightAware ADS-B (KONZ)
Wed 02:27:43 PM 30.8461 -83.8069 184° South 438 504 35,000  Level FlightAware ADS-B (KONZ)
Wed 02:28:09 PM 30.7925 -83.8116 185° South 439 505 35,000  Level FlightAware ADS-B
Wed 02:28:45 PM 30.7209 -83.8180 184° South 432 497 35,000  Level FlightAware ADS-B (KONZ)
Wed 02:29:16 PM 30.6627 -83.8231 184° South 433 498 35,000  Level FlightAware ADS-B (KONZ)
Wed 02:29:51 PM 30.5885 -83.8294 184° South 435 501 35,000  Level FlightAware ADS-B (KONZ)
Wed 02:30:21 PM 30.5287 -83.8343 184° South 437 503 35,000  Level FlightAware ADS-B (KONZ)
Wed 02:30:53 PM 30.4667 -83.8396 184° South 438 504 35,000  Level FlightAware ADS-B
Wed 02:31:23 PM 30.4067 -83.8449 184° South 439 505 35,000 98 Level FlightAware ADS-B
Wed 02:31:54 PM 30.3396 -83.8507 184° South 439 505 35,100 91 Climbing FlightAware ADS-B
Wed 02:32:29 PM 30.2693 -83.8567 184° South 438 504 35,100 -87 Level FlightAware ADS-B (KONZ)
Wed 02:33:03 PM 30.2009 -83.8625 184° South 438 504 35,000 -94 Descending FlightAware ADS-B (KONZ)
Wed 02:33:33 PM 30.1399 -83.8677 184° South 439 505 35,000  Level FlightAware ADS-B (KONZ)
Wed 02:34:11 PM 30.0759 -83.8731 184° South 440 506 35,000 -143 Level FlightAware ADS-B (KONZ)
Wed 02:34:57 PM 29.9850 -83.8806 184° South 442 509 34,800 -623 Descending Jacksonville Center
Wed 02:35:57 PM 29.8664 -83.8292 159° South 435 501 33,900 -1,000 Descending Jacksonville Center
Wed 02:36:57 PM 29.7458 -83.7706 157° South 450 518 32,800 -1,000 Descending Jacksonville Center
Wed 02:37:57 PM 29.6272 -83.7119 157° South 456 525 31,900 -950 Descending Jacksonville Center
Wed 02:38:57 PM 29.5106 -83.6561 157° South 456 525 30,900 -950 Descending Jacksonville Center
Wed 02:39:57 PM 29.3981 -83.6006 157° South 451 519 30,000 -950 Descending Jacksonville Center
Wed 02:40:57 PM 29.2878 -83.5425 155° Southeast 445 512 29,000 -1,000 Descending Jacksonville Center
Wed 02:41:57 PM 29.1775 -83.4847 155° Southeast 439 505 28,000 -1,200 Descending Jacksonville Center
Wed 02:42:57 PM 29.0775 -83.4200 151° Southeast 426 490 26,600 -1,700 Descending Jacksonville Center
Wed 02:43:57 PM 28.9797 -83.3553 150° Southeast 419 482 24,600 -2,200 Descending Jacksonville Center
Wed 02:44:57 PM 28.8881 -83.3006 152° Southeast 397 457 22,200 -2,868 Descending Jacksonville Center
Wed 02:46:36 PM 28.7333 -83.2000 150° Southeast 341 392 17,000 -2,906 Descending Tampa TRACON
Wed 02:47:36 PM 28.6667 -83.1500 147° Southeast 325 374 14,500 -2,600 Descending Tampa TRACON
Wed 02:48:36 PM 28.5833 -83.1000 152° Southeast 310 357 11,800 -2,000 Descending Tampa TRACON
Wed 02:49:36 PM 28.5167 -83.0667 156° South 306 352 10,500 -1,250 Descending Tampa TRACON
Wed 02:50:36 PM 28.4500 -83.0167 147° Southeast 272 313 9,300 -1,350 Descending Tampa TRACON
Wed 02:51:36 PM 28.3833 -82.9667 147° Southeast 265 305 7,800 -1,423 Descending Tampa TRACON
Wed 02:52:13 PM 28.3564 -82.9419 141° Southeast 268 308 7,000 -1,879 Descending Miami Center
Wed 02:53:15 PM 28.2903 -82.8861 143° Southeast 253 291 4,700 -1,403 Descending Miami Center
Wed 02:54:17 PM 28.2325 -82.8403 145° Southeast 253 291 4,100 -484 Descending Miami Center
Wed 02:55:19 PM 28.1728 -82.7950 146° Southeast 254 292 3,700 -541 Descending Miami Center
Wed 02:56:30 PM 28.1000 -82.7333 143° Southeast 242 278 2,900 -916 Descending Tampa TRACON
Wed 02:57:30 PM 28.0500 -82.7000 150° Southeast 205 236 1,700 -650 Descending Tampa TRACON
Wed 02:58:30 PM 28.0167 -82.6667 139° Southeast 174 200 1,600 -446 Descending Tampa TRACON
Wed 02:59:31 PM 27.9833 -82.6833 204° Southwest 139 160 800 -645 Descending Tampa TRACON
Wed 03:00:31 PM 27.9333 -82.7000 196° South 127 146 300 -500 Descending Tampa TRACON

Login

Don't have an account? Register now (free) for customized features, flight alerts, and more!